KEMP/EMP METAR and TAF weather

Enter ICAO airport designator
Station Type Date Time Source
KEMP METAR 2019/04/25 21:53 UTC NOAA

KEMP 252153Z AUTO 34015G25KT 10SM SCT039 BKN047 BKN055 19/11 A2992 RMK AO2 PK WND 35030/2054 SLP132 T01940111


Station Type Date Time Source
KEMP Decoded METAR 2019/04/25 21:53 UTC NOAA

EMPORIA MUNICIPAL AIRPORT, KS, United States (KEMP) 38-20N 96-12W 367M
Apr 25, 2019 - 05:53 PM EDT / 2019.04.25 2153 UTC
Wind: from the NNW (340 degrees) at 17 MPH (15 KT) gusting to 29 MPH (25 KT):0
Visibility: 10 mile(s):0
Sky conditions: mostly cloudy
Temperature: 66.9 F (19.4 C)
Dew Point: 52.0 F (11.1 C)
Relative Humidity: 58%
Pressure (altimeter): 29.92 in. Hg (1013 hPa)
ob: KEMP 252153Z AUTO 34015G25KT 10SM SCT039 BKN047 BKN055 19/11 A2992 RMK AO2 PK WND 35030/2054 SLP132 T01940111
cycle: 22

Station Type Date Time Source
KEMP TAF UTC NOAA

Error!

Example: see airport list